createdAt,value
2022-09-26T00:01:43.728Z,7.60
2022-09-26T00:04:18.388Z,7.60
2022-09-26T00:06:48.901Z,7.70
2022-09-26T00:09:18.245Z,7.70
2022-09-26T00:11:46.834Z,7.80
2022-09-26T00:14:18.058Z,7.80
2022-09-26T00:16:48.406Z,7.90
2022-09-26T00:19:19.003Z,7.90
2022-09-26T00:21:47.118Z,8.00
2022-09-26T00:24:16.109Z,8.00
2022-09-26T00:26:44.684Z,8.00
2022-09-26T00:29:14.213Z,8.00
2022-09-26T00:31:45.573Z,8.10
2022-09-26T00:34:16.448Z,8.10
2022-09-26T00:36:45.106Z,8.20
2022-09-26T00:39:15.669Z,8.20
2022-09-26T00:41:43.965Z,8.30
2022-09-26T00:44:46.026Z,8.40
2022-09-26T00:47:33.969Z,8.60
2022-09-26T00:50:08.356Z,8.70
2022-09-26T00:52:40.260Z,8.90
2022-09-26T00:55:14.074Z,9.00
2022-09-26T00:57:47.808Z,9.10
2022-09-26T01:00:16.145Z,9.20
2022-09-26T01:02:46.630Z,9.30
2022-09-26T01:05:18.248Z,9.40
2022-09-26T01:07:47.050Z,9.40
2022-09-26T01:10:16.417Z,9.50
2022-09-26T01:12:45.012Z,9.50
2022-09-26T01:15:13.634Z,9.60
2022-09-26T01:17:44.859Z,9.60
2022-09-26T01:20:28.452Z,9.70
2022-09-26T01:23:41.744Z,9.70
2022-09-26T01:26:30.532Z,9.80
2022-09-26T01:29:15.497Z,9.80
2022-09-26T01:32:09.199Z,9.80
2022-09-26T01:34:42.485Z,9.80
2022-09-26T01:37:18.851Z,9.80
2022-09-26T01:39:58.848Z,9.80
2022-09-26T01:42:36.127Z,9.90
2022-09-26T01:45:14.817Z,9.90
2022-09-26T01:47:49.552Z,9.80
2022-09-26T01:50:24.750Z,9.80
2022-09-26T01:52:58.269Z,9.80
2022-09-26T01:55:30.992Z,9.80
2022-09-26T01:58:05.813Z,9.80
2022-09-26T02:00:35.547Z,9.80
2022-09-26T02:03:09.984Z,9.80
2022-09-26T02:05:44.081Z,9.80
2022-09-26T02:08:17.281Z,9.80
2022-09-26T02:10:49.871Z,9.70
2022-09-26T02:13:21.543Z,9.70
2022-09-26T02:15:54.430Z,9.70
2022-09-26T02:18:30.757Z,9.60
2022-09-26T02:21:03.463Z,9.60
2022-09-26T02:23:31.784Z,9.60
2022-09-26T02:26:00.407Z,9.50
2022-09-26T02:28:28.738Z,9.50
2022-09-26T02:30:57.570Z,9.50
2022-09-26T02:33:27.314Z,9.50
2022-09-26T02:35:56.354Z,9.50
2022-09-26T02:38:26.327Z,9.50
2022-09-26T02:41:01.433Z,9.50
2022-09-26T02:43:45.654Z,9.50
2022-09-26T02:46:39.654Z,9.50
2022-09-26T02:49:22.853Z,9.50
2022-09-26T02:52:04.178Z,9.50
2022-09-26T02:54:44.491Z,9.50
2022-09-26T02:57:24.891Z,9.50
2022-09-26T02:59:59.753Z,9.50
2022-09-26T03:02:35.364Z,9.50
2022-09-26T03:05:10.661Z,9.50
2022-09-26T03:07:43.969Z,9.50
2022-09-26T03:10:13.533Z,9.50
2022-09-26T03:12:44.528Z,9.50
2022-09-26T03:15:14.651Z,9.40
2022-09-26T03:17:47.239Z,9.40
2022-09-26T03:20:19.541Z,9.40
2022-09-26T03:22:47.831Z,9.40
2022-09-26T03:25:20.090Z,9.40
2022-09-26T03:27:49.134Z,9.40
2022-09-26T03:30:18.910Z,9.40
2022-09-26T03:32:47.041Z,9.40
2022-09-26T03:35:17.207Z,9.40
2022-09-26T03:37:45.480Z,9.40
2022-09-26T03:40:13.949Z,9.40
2022-09-26T03:42:42.570Z,9.40
2022-09-26T03:45:12.053Z,9.40
2022-09-26T03:47:41.647Z,9.40
2022-09-26T03:50:10.625Z,9.40
2022-09-26T03:52:40.092Z,9.50
2022-09-26T03:55:08.712Z,9.50
2022-09-26T03:57:36.818Z,9.50
2022-09-26T04:00:08.134Z,9.50
2022-09-26T04:02:36.511Z,9.50
2022-09-26T04:05:05.046Z,9.50
2022-09-26T04:07:33.335Z,9.50
2022-09-26T04:10:02.955Z,9.50
2022-09-26T04:12:31.163Z,9.40
2022-09-26T04:14:59.365Z,9.40
2022-09-26T04:17:27.479Z,9.40
2022-09-26T04:19:55.745Z,9.40
2022-09-26T04:22:25.194Z,9.50
2022-09-26T04:24:53.587Z,9.40
2022-09-26T04:27:23.092Z,9.40
2022-09-26T04:29:51.295Z,9.40
2022-09-26T04:32:19.770Z,9.50
2022-09-26T04:34:47.934Z,9.50
2022-09-26T04:37:16.204Z,9.50
2022-09-26T04:39:44.389Z,9.50
2022-09-26T04:42:12.444Z,9.50
2022-09-26T04:44:42.569Z,9.50
2022-09-26T04:47:11.356Z,9.60
2022-09-26T04:49:39.502Z,9.60
2022-09-26T04:52:07.575Z,9.60
2022-09-26T04:54:38.440Z,9.70
2022-09-26T04:57:06.467Z,9.70
2022-09-26T04:59:34.698Z,9.70
2022-09-26T05:02:08.639Z,9.70
2022-09-26T05:04:36.978Z,9.70
2022-09-26T05:07:05.602Z,9.70
2022-09-26T05:09:36.068Z,9.70
2022-09-26T05:12:04.710Z,9.70
2022-09-26T05:14:35.418Z,9.70
2022-09-26T05:17:05.104Z,9.70
2022-09-26T05:19:33.947Z,9.70
2022-09-26T05:22:02.055Z,9.60
2022-09-26T05:24:48.125Z,9.60
2022-09-26T05:27:19.186Z,9.60
2022-09-26T05:29:48.920Z,9.60
2022-09-26T05:32:20.827Z,9.60
2022-09-26T05:34:48.962Z,9.60
2022-09-26T05:37:17.316Z,9.60
2022-09-26T05:40:02.845Z,9.60
2022-09-26T05:42:31.025Z,9.60
2022-09-26T05:45:03.288Z,9.60
2022-09-26T05:47:36.251Z,9.70
2022-09-26T05:50:09.961Z,9.70
2022-09-26T05:52:38.690Z,9.70
2022-09-26T05:55:07.973Z,9.70
2022-09-26T05:57:36.077Z,9.80
2022-09-26T06:00:05.390Z,9.80
2022-09-26T06:02:35.016Z,9.90
2022-09-26T06:05:03.208Z,9.90
2022-09-26T06:07:31.241Z,10.00
2022-09-26T06:09:59.709Z,10.00
2022-09-26T06:12:28.126Z,10.10
2022-09-26T06:14:56.219Z,10.10
2022-09-26T06:17:24.242Z,10.20
2022-09-26T06:19:53.777Z,10.20
2022-09-26T06:22:22.088Z,10.30
2022-09-26T06:24:50.174Z,10.30
2022-09-26T06:27:18.268Z,10.40
2022-09-26T06:29:46.304Z,10.50
2022-09-26T06:32:14.390Z,10.60
2022-09-26T06:34:42.415Z,10.70
2022-09-26T06:37:11.991Z,10.80
2022-09-26T06:39:40.231Z,10.80
2022-09-26T06:42:08.408Z,10.90
2022-09-26T06:44:36.545Z,11.00
2022-09-26T06:47:05.368Z,11.20
2022-09-26T06:49:35.020Z,11.50
2022-09-26T06:52:04.075Z,11.70
2022-09-26T06:54:33.489Z,11.70
2022-09-26T06:57:01.514Z,11.90
2022-09-26T06:59:29.655Z,11.90
2022-09-26T07:01:57.797Z,11.80
2022-09-26T07:04:27.327Z,11.80
2022-09-26T07:06:58.173Z,11.70
2022-09-26T07:09:26.864Z,11.80
2022-09-26T07:12:14.179Z,11.70
2022-09-26T07:14:43.181Z,11.80
2022-09-26T07:17:15.477Z,11.80
2022-09-26T07:19:43.856Z,11.80
2022-09-26T07:22:12.358Z,11.90
2022-09-26T07:24:40.461Z,12.00
2022-09-26T07:27:10.417Z,12.00
2022-09-26T07:29:38.608Z,12.00
2022-09-26T07:32:06.798Z,12.20
2022-09-26T07:34:34.967Z,12.40
2022-09-26T07:37:03.025Z,12.40
2022-09-26T07:39:31.163Z,12.50
2022-09-26T07:42:00.711Z,12.60
2022-09-26T07:45:08.653Z,12.80
2022-09-26T07:47:35.625Z,12.90
2022-09-26T07:50:13.527Z,13.10
2022-09-26T07:52:42.353Z,13.30
2022-09-26T07:55:12.004Z,13.20
2022-09-26T07:57:40.230Z,13.20
2022-09-26T08:00:13.125Z,13.10
2022-09-26T08:02:45.333Z,13.10
2022-09-26T08:05:17.417Z,13.20
2022-09-26T08:07:45.796Z,13.20
2022-09-26T08:10:21.115Z,13.10
2022-09-26T08:12:49.477Z,13.20
2022-09-26T08:15:20.340Z,13.40
2022-09-26T08:17:48.434Z,13.30
2022-09-26T08:20:16.589Z,13.30
2022-09-26T08:22:47.469Z,13.60
2022-09-26T08:25:15.599Z,13.50
2022-09-26T08:27:44.112Z,13.60
2022-09-26T08:30:13.558Z,13.60
2022-09-26T08:32:44.490Z,13.80
2022-09-26T08:35:15.048Z,13.90
2022-09-26T08:37:43.208Z,13.90
2022-09-26T08:40:12.101Z,13.90
2022-09-26T08:42:52.135Z,14.10
2022-09-26T08:45:48.984Z,14.20
2022-09-26T08:48:39.518Z,14.10
2022-09-26T08:51:13.856Z,13.90
2022-09-26T08:53:47.414Z,13.70
2022-09-26T08:56:21.424Z,13.80
2022-09-26T08:58:53.918Z,13.80
2022-09-26T09:01:27.873Z,13.80
2022-09-26T09:04:03.180Z,13.70
2022-09-26T09:06:31.331Z,13.60
2022-09-26T09:08:59.893Z,13.50
2022-09-26T09:11:54.615Z,13.60
2022-09-26T09:14:35.981Z,13.60
2022-09-26T09:17:16.517Z,13.70
2022-09-26T09:19:58.423Z,13.70
2022-09-26T09:22:46.477Z,13.80
2022-09-26T09:25:19.322Z,13.70
2022-09-26T09:28:12.157Z,13.80
2022-09-26T09:30:44.890Z,13.60
2022-09-26T09:33:16.525Z,13.60
2022-09-26T09:35:49.739Z,13.60
2022-09-26T09:38:20.194Z,13.60
2022-09-26T09:40:55.998Z,13.60
2022-09-26T09:43:29.938Z,13.40
2022-09-26T09:46:05.522Z,13.30
2022-09-26T09:48:34.301Z,13.40
2022-09-26T09:51:30.196Z,13.40
2022-09-26T09:54:20.807Z,13.40
2022-09-26T09:57:04.127Z,13.30
2022-09-26T10:00:05.224Z,13.30
2022-09-26T10:02:40.237Z,13.20
2022-09-26T10:05:24.380Z,13.20
2022-09-26T10:07:58.296Z,13.10
2022-09-26T10:10:38.840Z,13.00
2022-09-26T10:13:09.091Z,13.00
2022-09-26T10:15:41.297Z,12.90
2022-09-26T10:18:29.542Z,12.90
2022-09-26T10:21:02.183Z,12.90
2022-09-26T10:23:35.100Z,12.90
2022-09-26T10:26:05.604Z,12.90
2022-09-26T10:28:37.817Z,12.90
2022-09-26T10:31:09.915Z,12.80
2022-09-26T10:33:39.859Z,12.80
2022-09-26T10:36:17.932Z,12.70
2022-09-26T10:39:15.924Z,12.70
2022-09-26T10:41:46.085Z,12.80
2022-09-26T10:44:26.214Z,12.70
2022-09-26T10:46:58.482Z,12.60
2022-09-26T10:49:32.642Z,12.50
2022-09-26T10:52:11.677Z,12.50
2022-09-26T10:54:49.159Z,12.50
2022-09-26T10:57:24.420Z,12.40
2022-09-26T10:59:54.899Z,12.40
2022-09-26T11:02:25.221Z,12.40
2022-09-26T11:05:16.319Z,12.30
2022-09-26T11:07:47.840Z,12.20
2022-09-26T11:10:24.364Z,12.10
2022-09-26T11:13:02.446Z,12.10
2022-09-26T11:15:31.204Z,12.00
2022-09-26T11:17:59.579Z,12.00
2022-09-26T11:20:48.525Z,12.00
2022-09-26T11:23:34.314Z,12.00
2022-09-26T11:26:15.889Z,12.00
2022-09-26T11:31:42.242Z,12.10
2022-09-26T11:34:17.083Z,12.10
2022-09-26T11:37:05.140Z,12.20
2022-09-26T11:39:55.478Z,12.30
2022-09-26T11:42:37.379Z,12.30
2022-09-26T11:45:15.220Z,12.30
2022-09-26T11:48:09.045Z,12.30
2022-09-26T11:50:41.293Z,12.20
2022-09-26T11:53:29.349Z,12.20
2022-09-26T11:56:18.989Z,12.20
2022-09-26T11:58:59.432Z,12.10
2022-09-26T12:01:39.234Z,12.10
2022-09-26T12:04:47.026Z,12.10
2022-09-26T12:07:22.324Z,12.10
2022-09-26T12:10:03.799Z,12.10
2022-09-26T12:12:42.435Z,12.10
2022-09-26T12:15:23.683Z,12.10
2022-09-26T12:18:07.396Z,12.10
2022-09-26T12:20:40.308Z,12.10
2022-09-26T12:23:17.820Z,12.10
2022-09-26T12:26:08.612Z,12.10
2022-09-26T12:28:53.186Z,12.10
2022-09-26T12:31:37.297Z,12.10
2022-09-26T12:34:23.661Z,12.20
2022-09-26T12:37:07.416Z,12.20
2022-09-26T12:39:54.790Z,12.20
2022-09-26T12:42:38.773Z,12.20
2022-09-26T12:45:32.115Z,12.20
2022-09-26T12:48:17.113Z,12.20
2022-09-26T12:50:53.073Z,12.20
2022-09-26T12:53:43.795Z,12.20
2022-09-26T12:56:22.358Z,12.30
2022-09-26T12:59:04.537Z,12.30
2022-09-26T13:01:50.195Z,12.30
2022-09-26T13:04:53.029Z,12.30
2022-09-26T13:07:36.791Z,12.40
2022-09-26T13:10:33.392Z,12.40
2022-09-26T13:13:30.551Z,12.50
2022-09-26T13:16:14.914Z,12.60
2022-09-26T13:18:48.185Z,12.80
2022-09-26T13:21:22.229Z,12.90
2022-09-26T13:23:58.060Z,13.10
2022-09-26T13:26:32.179Z,13.30
2022-09-26T13:29:19.906Z,13.50
2022-09-26T13:31:55.412Z,13.90
2022-09-26T13:34:31.106Z,14.50
2022-09-26T13:37:01.676Z,14.80
2022-09-26T13:39:35.041Z,15.10
2022-09-26T13:42:09.153Z,15.30
2022-09-26T13:44:55.892Z,15.30
2022-09-26T13:47:33.414Z,15.10
2022-09-26T13:50:15.113Z,15.00
2022-09-26T13:52:52.473Z,14.90
2022-09-26T13:55:22.578Z,14.60
2022-09-26T13:58:04.451Z,14.40
2022-09-26T14:00:53.428Z,14.30
2022-09-26T14:03:40.356Z,14.10
2022-09-26T14:06:19.808Z,14.00
2022-09-26T14:09:27.900Z,13.90
2022-09-26T14:12:35.558Z,13.70
2022-09-26T14:15:24.166Z,13.50
2022-09-26T14:18:16.500Z,13.40
2022-09-26T14:21:08.518Z,13.40
2022-09-26T14:23:45.038Z,13.40
2022-09-26T14:26:19.342Z,13.30
2022-09-26T14:28:55.550Z,13.30
2022-09-26T14:31:57.436Z,13.20
2022-09-26T14:34:30.576Z,13.20
2022-09-26T14:37:04.081Z,13.20
2022-09-26T14:39:36.244Z,13.10
2022-09-26T14:42:23.056Z,13.10
2022-09-26T14:44:59.102Z,13.00
2022-09-26T14:47:30.536Z,13.00
2022-09-26T14:50:05.973Z,12.90
2022-09-26T14:52:35.361Z,12.80
2022-09-26T14:55:07.113Z,12.80
2022-09-26T14:57:38.914Z,12.80
2022-09-26T15:00:37.972Z,12.70
2022-09-26T15:03:13.256Z,12.70
2022-09-26T15:05:43.320Z,12.70
2022-09-26T15:08:24.859Z,12.70
2022-09-26T15:10:54.503Z,12.70
2022-09-26T15:13:32.332Z,12.60
2022-09-26T15:16:15.729Z,12.60
2022-09-26T15:18:47.193Z,12.60
2022-09-26T15:21:26.469Z,12.60
2022-09-26T15:23:56.679Z,12.60
2022-09-26T15:26:27.274Z,12.60
2022-09-26T15:28:58.260Z,12.50
2022-09-26T15:31:29.660Z,12.50
2022-09-26T15:34:03.034Z,12.40
2022-09-26T15:36:32.664Z,12.40
2022-09-26T15:39:01.855Z,12.40
2022-09-26T15:41:47.152Z,12.40
2022-09-26T15:44:25.530Z,12.30
2022-09-26T15:46:54.221Z,12.30
2022-09-26T15:49:28.453Z,12.20
2022-09-26T15:51:57.838Z,12.20
2022-09-26T15:54:29.381Z,12.20
2022-09-26T15:57:01.211Z,12.20
2022-09-26T15:59:37.411Z,12.10
2022-09-26T16:02:22.015Z,12.10
2022-09-26T16:04:52.799Z,12.10
2022-09-26T16:07:24.863Z,12.10
2022-09-26T16:09:53.720Z,12.10
2022-09-26T16:12:24.381Z,12.10
2022-09-26T16:14:59.924Z,12.10
2022-09-26T16:17:36.325Z,12.10
2022-09-26T16:20:23.848Z,12.10
2022-09-26T16:22:58.195Z,12.10
2022-09-26T16:25:36.202Z,12.00
2022-09-26T16:28:28.006Z,12.00
2022-09-26T16:31:15.931Z,12.00
2022-09-26T16:33:52.267Z,11.90
2022-09-26T16:36:24.073Z,11.90
2022-09-26T16:38:58.272Z,11.80
2022-09-26T16:44:29.006Z,11.70
2022-09-26T16:47:04.716Z,11.70
2022-09-26T16:49:42.918Z,11.60
2022-09-26T16:52:28.166Z,11.60
2022-09-26T16:54:57.791Z,11.50
2022-09-26T16:57:28.984Z,11.50
2022-09-26T17:00:15.074Z,11.40
2022-09-26T17:02:45.110Z,11.40
2022-09-26T17:05:19.332Z,11.40
2022-09-26T17:07:48.914Z,11.40
2022-09-26T17:10:17.619Z,11.40
2022-09-26T17:12:52.938Z,11.30
2022-09-26T17:15:26.123Z,11.40
2022-09-26T17:17:57.068Z,11.40
2022-09-26T17:20:26.942Z,11.30
2022-09-26T17:22:55.866Z,11.30
2022-09-26T17:25:25.296Z,11.30
2022-09-26T17:27:57.778Z,11.30
2022-09-26T17:30:26.118Z,11.30
2022-09-26T17:32:55.908Z,11.30
2022-09-26T17:35:27.342Z,11.20
2022-09-26T17:37:56.418Z,11.20
2022-09-26T17:40:27.224Z,11.20
2022-09-26T17:42:58.331Z,11.20
2022-09-26T17:45:32.764Z,11.10
2022-09-26T17:48:06.720Z,11.10
2022-09-26T17:50:36.360Z,11.10
2022-09-26T17:53:06.422Z,11.10
2022-09-26T17:55:34.856Z,11.10
2022-09-26T17:58:05.195Z,11.00
2022-09-26T18:00:38.810Z,11.00
2022-09-26T18:03:16.847Z,11.00
2022-09-26T18:05:47.396Z,11.00
2022-09-26T18:08:21.657Z,11.00
2022-09-26T18:10:52.743Z,11.00
2022-09-26T18:13:26.587Z,11.10
2022-09-26T18:15:55.373Z,11.00
2022-09-26T18:18:27.862Z,11.10
2022-09-26T18:20:57.456Z,11.00
2022-09-26T18:23:30.052Z,11.00
2022-09-26T18:25:59.904Z,11.00
2022-09-26T18:28:28.543Z,11.00
2022-09-26T18:31:00.843Z,11.00
2022-09-26T18:33:35.755Z,11.00
2022-09-26T18:36:06.441Z,11.00
2022-09-26T18:38:35.507Z,10.90
2022-09-26T18:41:09.203Z,10.90
2022-09-26T18:43:42.607Z,10.90
2022-09-26T18:46:15.347Z,10.90
2022-09-26T18:48:46.599Z,10.90
2022-09-26T18:51:15.480Z,10.80
2022-09-26T18:53:48.478Z,10.80
2022-09-26T18:56:48.734Z,10.80
2022-09-26T18:59:17.337Z,10.80
2022-09-26T19:01:46.031Z,10.80
2022-09-26T19:04:19.928Z,10.70
2022-09-26T19:06:51.453Z,10.70
2022-09-26T19:09:22.263Z,10.70
2022-09-26T19:11:50.900Z,10.70
2022-09-26T19:14:22.441Z,10.70
2022-09-26T19:16:51.351Z,10.70
2022-09-26T19:19:22.054Z,10.70
2022-09-26T19:21:51.764Z,10.60
2022-09-26T19:24:27.932Z,10.60
2022-09-26T19:26:59.416Z,10.60
2022-09-26T19:29:32.114Z,10.60
2022-09-26T19:32:00.866Z,10.60
2022-09-26T19:34:32.893Z,10.60
2022-09-26T19:37:04.006Z,10.60
2022-09-26T19:39:32.893Z,10.50
2022-09-26T19:42:01.672Z,10.50
2022-09-26T19:44:29.981Z,10.50
2022-09-26T19:46:59.846Z,10.50
2022-09-26T19:49:32.057Z,10.50
2022-09-26T19:52:01.249Z,10.50
2022-09-26T19:54:30.004Z,10.50
2022-09-26T19:56:58.876Z,10.50
2022-09-26T19:59:27.771Z,10.50
2022-09-26T20:01:56.702Z,10.50
2022-09-26T20:04:25.933Z,10.50
2022-09-26T20:06:55.727Z,10.50
2022-09-26T20:09:23.985Z,10.50
2022-09-26T20:11:52.202Z,10.40
2022-09-26T20:14:26.174Z,10.40
2022-09-26T20:17:01.124Z,10.40
2022-09-26T20:19:36.530Z,10.40
2022-09-26T20:22:09.089Z,10.40
2022-09-26T20:24:39.542Z,10.40
2022-09-26T20:27:11.896Z,10.30
2022-09-26T20:29:57.480Z,10.30
2022-09-26T20:32:26.670Z,10.40
2022-09-26T20:34:56.441Z,10.30
2022-09-26T20:37:26.497Z,10.30
2022-09-26T20:39:54.922Z,10.30
2022-09-26T20:42:28.009Z,10.30
2022-09-26T20:44:56.885Z,10.30
2022-09-26T20:47:25.155Z,10.30
2022-09-26T20:49:58.501Z,10.30
2022-09-26T20:52:30.348Z,10.30
2022-09-26T20:54:59.009Z,10.30
2022-09-26T20:57:27.252Z,10.30
2022-09-26T20:59:55.645Z,10.30
2022-09-26T21:02:30.095Z,10.30
2022-09-26T21:05:00.851Z,10.30
2022-09-26T21:07:33.010Z,10.30
2022-09-26T21:10:01.257Z,10.30
2022-09-26T21:12:29.390Z,10.30
2022-09-26T21:14:57.642Z,10.30
2022-09-26T21:17:29.179Z,10.30
2022-09-26T21:19:57.884Z,10.30
2022-09-26T21:22:28.423Z,10.30
2022-09-26T21:24:57.956Z,10.30
2022-09-26T21:27:26.190Z,10.30
2022-09-26T21:29:54.352Z,10.30
2022-09-26T21:32:23.958Z,10.30
2022-09-26T21:34:58.928Z,10.30
2022-09-26T21:37:27.133Z,10.30
2022-09-26T21:39:55.277Z,10.30
2022-09-26T21:42:26.757Z,10.30
2022-09-26T21:45:02.149Z,10.30
2022-09-26T21:47:31.526Z,10.30
2022-09-26T21:49:59.832Z,10.30
2022-09-26T21:52:33.993Z,10.30
2022-09-26T21:55:03.335Z,10.30
2022-09-26T21:57:38.619Z,10.30
2022-09-26T22:00:09.671Z,10.30
2022-09-26T22:02:38.496Z,10.30
2022-09-26T22:05:07.201Z,10.30
2022-09-26T22:07:35.394Z,10.30
2022-09-26T22:10:03.814Z,10.30
2022-09-26T22:12:33.698Z,10.30
2022-09-26T22:15:02.024Z,10.40
2022-09-26T22:17:30.340Z,10.40
2022-09-26T22:19:58.547Z,10.40
2022-09-26T22:22:27.086Z,10.40
2022-09-26T22:24:55.336Z,10.40
2022-09-26T22:27:23.509Z,10.50
2022-09-26T22:29:54.603Z,10.50
2022-09-26T22:32:23.132Z,10.50
2022-09-26T22:34:51.349Z,10.50
2022-09-26T22:37:19.809Z,10.50
2022-09-26T22:39:48.071Z,10.50
2022-09-26T22:42:16.601Z,10.50
2022-09-26T22:44:45.871Z,10.50
2022-09-26T22:47:15.601Z,10.50
2022-09-26T22:49:43.756Z,10.50
2022-09-26T22:52:11.904Z,10.50
2022-09-26T22:54:40.118Z,10.60
2022-09-26T22:57:08.310Z,10.60
2022-09-26T22:59:37.193Z,10.60
2022-09-26T23:02:05.979Z,10.60
2022-09-26T23:04:47.828Z,10.60
2022-09-26T23:07:17.702Z,10.60
2022-09-26T23:09:46.342Z,10.60
2022-09-26T23:12:14.553Z,10.60
2022-09-26T23:14:42.768Z,10.60
2022-09-26T23:17:11.096Z,10.60
2022-09-26T23:19:41.377Z,10.60
2022-09-26T23:22:09.546Z,10.60
2022-09-26T23:24:37.723Z,10.60
2022-09-26T23:27:05.878Z,10.60
2022-09-26T23:29:34.146Z,10.60
2022-09-26T23:32:02.709Z,10.60
2022-09-26T23:34:30.945Z,10.60
2022-09-26T23:37:00.536Z,10.70
2022-09-26T23:39:28.734Z,10.70
2022-09-26T23:41:57.510Z,10.70
2022-09-26T23:44:25.876Z,10.70
2022-09-26T23:46:54.001Z,10.70
2022-09-26T23:49:22.124Z,10.70
2022-09-26T23:51:50.219Z,10.70
2022-09-26T23:54:19.856Z,10.70
2022-09-26T23:56:48.023Z,10.70
2022-09-26T23:59:16.305Z,10.70
